sensor_id;sensor_type;location;lat;lon;timestamp;pressure;altitude;pressure_sealevel;temperature
65600;BMP280;52272;-29.642;-50.764;2022-11-20T00:01:38;100576.56;;;24.69
65600;BMP280;52272;-29.642;-50.764;2022-11-20T00:04:09;100576.84;;;24.58
65600;BMP280;52272;-29.642;-50.764;2022-11-20T00:06:41;100577.28;;;24.62
65600;BMP280;52272;-29.642;-50.764;2022-11-20T00:09:12;100583.78;;;24.59
65600;BMP280;52272;-29.642;-50.764;2022-11-20T00:11:41;100586.41;;;24.72
65600;BMP280;52272;-29.642;-50.764;2022-11-20T00:14:11;100587.88;;;24.73
65600;BMP280;52272;-29.642;-50.764;2022-11-20T00:16:41;100581.31;;;24.48
65600;BMP280;52272;-29.642;-50.764;2022-11-20T00:19:11;100590.34;;;24.63
65600;BMP280;52272;-29.642;-50.764;2022-11-20T00:21:41;100590.22;;;24.48
65600;BMP280;52272;-29.642;-50.764;2022-11-20T00:24:11;100582.88;;;24.36
65600;BMP280;52272;-29.642;-50.764;2022-11-20T00:26:42;100590.81;;;24.34
65600;BMP280;52272;-29.642;-50.764;2022-11-20T00:29:13;100593.34;;;24.32
65600;BMP280;52272;-29.642;-50.764;2022-11-20T00:31:43;100592.13;;;24.40
65600;BMP280;52272;-29.642;-50.764;2022-11-20T00:34:13;100595.56;;;24.33
65600;BMP280;52272;-29.642;-50.764;2022-11-20T00:36:46;100593.59;;;24.21
65600;BMP280;52272;-29.642;-50.764;2022-11-20T00:39:15;100590.97;;;24.28
65600;BMP280;52272;-29.642;-50.764;2022-11-20T00:41:46;100591.09;;;24.23
65600;BMP280;52272;-29.642;-50.764;2022-11-20T00:44:16;100593.13;;;24.09
65600;BMP280;52272;-29.642;-50.764;2022-11-20T00:46:46;100588.69;;;23.99
65600;BMP280;52272;-29.642;-50.764;2022-11-20T00:49:16;100596.88;;;23.99
65600;BMP280;52272;-29.642;-50.764;2022-11-20T00:51:47;100598.50;;;24.02
65600;BMP280;52272;-29.642;-50.764;2022-11-20T00:54:17;100599.41;;;23.84
65600;BMP280;52272;-29.642;-50.764;2022-11-20T00:56:47;100604.00;;;23.76
65600;BMP280;52272;-29.642;-50.764;2022-11-20T00:59:17;100600.91;;;23.59
65600;BMP280;52272;-29.642;-50.764;2022-11-20T01:01:48;100606.34;;;23.59
65600;BMP280;52272;-29.642;-50.764;2022-11-20T01:04:20;100603.41;;;23.57
65600;BMP280;52272;-29.642;-50.764;2022-11-20T01:06:50;100608.03;;;23.49
65600;BMP280;52272;-29.642;-50.764;2022-11-20T01:09:20;100601.84;;;23.36
65600;BMP280;52272;-29.642;-50.764;2022-11-20T01:11:51;100604.88;;;23.32
65600;BMP280;52272;-29.642;-50.764;2022-11-20T01:14:21;100605.94;;;23.16
65600;BMP280;52272;-29.642;-50.764;2022-11-20T01:16:51;100609.69;;;23.13
65600;BMP280;52272;-29.642;-50.764;2022-11-20T01:19:22;100602.56;;;22.97
65600;BMP280;52272;-29.642;-50.764;2022-11-20T01:21:57;100604.66;;;22.91
65600;BMP280;52272;-29.642;-50.764;2022-11-20T01:24:27;100604.13;;;22.93
65600;BMP280;52272;-29.642;-50.764;2022-11-20T01:26:57;100599.78;;;23.03
65600;BMP280;52272;-29.642;-50.764;2022-11-20T01:29:27;100601.50;;;22.87
65600;BMP280;52272;-29.642;-50.764;2022-11-20T01:31:57;100608.25;;;22.99
65600;BMP280;52272;-29.642;-50.764;2022-11-20T01:34:26;100601.13;;;22.96
65600;BMP280;52272;-29.642;-50.764;2022-11-20T01:36:59;100609.75;;;22.82
65600;BMP280;52272;-29.642;-50.764;2022-11-20T01:39:29;100595.88;;;22.85
65600;BMP280;52272;-29.642;-50.764;2022-11-20T01:41:59;100599.69;;;22.95
65600;BMP280;52272;-29.642;-50.764;2022-11-20T01:44:51;100605.72;;;23.14
65600;BMP280;52272;-29.642;-50.764;2022-11-20T01:47:57;100600.31;;;23.14
65600;BMP280;52272;-29.642;-50.764;2022-11-20T01:50:29;100600.63;;;23.24
65600;BMP280;52272;-29.642;-50.764;2022-11-20T01:53:05;100594.66;;;23.25
65600;BMP280;52272;-29.642;-50.764;2022-11-20T01:55:44;100592.47;;;23.24
65600;BMP280;52272;-29.642;-50.764;2022-11-20T01:58:15;100594.66;;;23.25
65600;BMP280;52272;-29.642;-50.764;2022-11-20T02:00:46;100590.25;;;22.96
65600;BMP280;52272;-29.642;-50.764;2022-11-20T02:03:17;100577.25;;;22.77
65600;BMP280;52272;-29.642;-50.764;2022-11-20T02:05:57;100572.94;;;22.55
65600;BMP280;52272;-29.642;-50.764;2022-11-20T02:08:31;100569.88;;;22.46
65600;BMP280;52272;-29.642;-50.764;2022-11-20T02:11:02;100574.69;;;22.21
65600;BMP280;52272;-29.642;-50.764;2022-11-20T02:13:32;100570.81;;;22.17
65600;BMP280;52272;-29.642;-50.764;2022-11-20T02:16:24;100542.25;;;21.79
65600;BMP280;52272;-29.642;-50.764;2022-11-20T02:18:56;100564.97;;;21.76
65600;BMP280;52272;-29.642;-50.764;2022-11-20T02:24:11;100555.56;;;21.58
65600;BMP280;52272;-29.642;-50.764;2022-11-20T02:29:26;100557.06;;;21.54
65600;BMP280;52272;-29.642;-50.764;2022-11-20T02:31:59;100556.03;;;21.81
65600;BMP280;52272;-29.642;-50.764;2022-11-20T02:34:31;100549.69;;;21.73
65600;BMP280;52272;-29.642;-50.764;2022-11-20T02:37:01;100559.97;;;21.80
65600;BMP280;52272;-29.642;-50.764;2022-11-20T02:39:31;100550.88;;;21.77
65600;BMP280;52272;-29.642;-50.764;2022-11-20T02:42:02;100552.94;;;21.90
65600;BMP280;52272;-29.642;-50.764;2022-11-20T02:44:35;100549.41;;;21.95
65600;BMP280;52272;-29.642;-50.764;2022-11-20T02:47:05;100541.66;;;21.86
65600;BMP280;52272;-29.642;-50.764;2022-11-20T02:49:35;100537.84;;;21.76
65600;BMP280;52272;-29.642;-50.764;2022-11-20T02:52:05;100542.97;;;21.61
65600;BMP280;52272;-29.642;-50.764;2022-11-20T02:54:35;100530.19;;;21.38
65600;BMP280;52272;-29.642;-50.764;2022-11-20T02:57:05;100540.88;;;21.30
65600;BMP280;52272;-29.642;-50.764;2022-11-20T02:59:35;100532.34;;;21.21
65600;BMP280;52272;-29.642;-50.764;2022-11-20T03:02:05;100528.69;;;21.18
65600;BMP280;52272;-29.642;-50.764;2022-11-20T03:04:36;100525.75;;;21.16
65600;BMP280;52272;-29.642;-50.764;2022-11-20T03:07:08;100528.75;;;21.13
65600;BMP280;52272;-29.642;-50.764;2022-11-20T03:09:38;100513.56;;;21.04
65600;BMP280;52272;-29.642;-50.764;2022-11-20T03:12:08;100515.34;;;21.02
65600;BMP280;52272;-29.642;-50.764;2022-11-20T03:14:38;100510.19;;;20.98
65600;BMP280;52272;-29.642;-50.764;2022-11-20T03:17:08;100516.75;;;21.03
65600;BMP280;52272;-29.642;-50.764;2022-11-20T03:19:39;100511.47;;;20.92
65600;BMP280;52272;-29.642;-50.764;2022-11-20T03:22:09;100500.78;;;20.99
65600;BMP280;52272;-29.642;-50.764;2022-11-20T03:24:39;100509.16;;;21.01
65600;BMP280;52272;-29.642;-50.764;2022-11-20T03:27:09;100502.59;;;21.15
65600;BMP280;52272;-29.642;-50.764;2022-11-20T03:29:39;100502.06;;;21.22
65600;BMP280;52272;-29.642;-50.764;2022-11-20T03:32:09;100509.50;;;21.16
65600;BMP280;52272;-29.642;-50.764;2022-11-20T03:34:42;100502.31;;;21.19
65600;BMP280;52272;-29.642;-50.764;2022-11-20T03:37:12;100494.94;;;21.19
65600;BMP280;52272;-29.642;-50.764;2022-11-20T03:39:43;100494.53;;;21.34
65600;BMP280;52272;-29.642;-50.764;2022-11-20T03:42:13;100476.09;;;21.27
65600;BMP280;52272;-29.642;-50.764;2022-11-20T03:45:02;100488.00;;;21.42
65600;BMP280;52272;-29.642;-50.764;2022-11-20T03:47:32;100483.88;;;21.17
65600;BMP280;52272;-29.642;-50.764;2022-11-20T03:50:04;100478.19;;;21.21
65600;BMP280;52272;-29.642;-50.764;2022-11-20T03:52:34;100480.59;;;21.43
65600;BMP280;52272;-29.642;-50.764;2022-11-20T03:55:06;100476.59;;;21.49
65600;BMP280;52272;-29.642;-50.764;2022-11-20T03:57:39;100476.72;;;21.38
65600;BMP280;52272;-29.642;-50.764;2022-11-20T04:00:11;100480.53;;;21.30
65600;BMP280;52272;-29.642;-50.764;2022-11-20T04:02:41;100478.91;;;21.21
65600;BMP280;52272;-29.642;-50.764;2022-11-20T04:05:13;100472.41;;;21.30
65600;BMP280;52272;-29.642;-50.764;2022-11-20T04:07:44;100477.00;;;21.35
65600;BMP280;52272;-29.642;-50.764;2022-11-20T04:10:14;100472.44;;;21.24
65600;BMP280;52272;-29.642;-50.764;2022-11-20T04:12:46;100477.72;;;21.35
65600;BMP280;52272;-29.642;-50.764;2022-11-20T04:15:18;100476.78;;;21.33
65600;BMP280;52272;-29.642;-50.764;2022-11-20T04:17:48;100467.78;;;21.25
65600;BMP280;52272;-29.642;-50.764;2022-11-20T04:20:20;100464.63;;;20.97
65600;BMP280;52272;-29.642;-50.764;2022-11-20T04:22:53;100451.41;;;20.93
65600;BMP280;52272;-29.642;-50.764;2022-11-20T04:25:27;100451.31;;;20.99
65600;BMP280;52272;-29.642;-50.764;2022-11-20T04:27:57;100454.38;;;20.90
65600;BMP280;52272;-29.642;-50.764;2022-11-20T04:30:27;100445.91;;;20.99
65600;BMP280;52272;-29.642;-50.764;2022-11-20T04:32:57;100454.44;;;20.60
65600;BMP280;52272;-29.642;-50.764;2022-11-20T04:35:28;100451.72;;;20.60
65600;BMP280;52272;-29.642;-50.764;2022-11-20T04:37:58;100454.31;;;20.71
65600;BMP280;52272;-29.642;-50.764;2022-11-20T04:40:28;100451.28;;;20.56
65600;BMP280;52272;-29.642;-50.764;2022-11-20T04:43:01;100450.41;;;20.43
65600;BMP280;52272;-29.642;-50.764;2022-11-20T04:45:32;100441.69;;;20.79
65600;BMP280;52272;-29.642;-50.764;2022-11-20T04:48:02;100446.50;;;20.62
65600;BMP280;52272;-29.642;-50.764;2022-11-20T04:50:32;100442.69;;;20.52
65600;BMP280;52272;-29.642;-50.764;2022-11-20T04:53:02;100435.97;;;20.59
65600;BMP280;52272;-29.642;-50.764;2022-11-20T04:55:33;100445.59;;;20.54
65600;BMP280;52272;-29.642;-50.764;2022-11-20T04:58:05;100441.34;;;20.40
65600;BMP280;52272;-29.642;-50.764;2022-11-20T05:00:36;100438.50;;;20.51
65600;BMP280;52272;-29.642;-50.764;2022-11-20T05:03:06;100434.91;;;20.67
65600;BMP280;52272;-29.642;-50.764;2022-11-20T05:05:36;100436.03;;;20.77
65600;BMP280;52272;-29.642;-50.764;2022-11-20T05:08:07;100425.69;;;20.81
65600;BMP280;52272;-29.642;-50.764;2022-11-20T05:10:37;100436.28;;;20.79
65600;BMP280;52272;-29.642;-50.764;2022-11-20T05:13:07;100444.38;;;20.79
65600;BMP280;52272;-29.642;-50.764;2022-11-20T05:15:37;100437.16;;;21.11
65600;BMP280;52272;-29.642;-50.764;2022-11-20T05:18:08;100446.97;;;21.14
65600;BMP280;52272;-29.642;-50.764;2022-11-20T05:20:38;100440.28;;;20.97
65600;BMP280;52272;-29.642;-50.764;2022-11-20T05:23:09;100413.56;;;21.06
65600;BMP280;52272;-29.642;-50.764;2022-11-20T05:25:39;100436.47;;;21.29
65600;BMP280;52272;-29.642;-50.764;2022-11-20T05:28:10;100441.47;;;21.20
65600;BMP280;52272;-29.642;-50.764;2022-11-20T05:30:40;100431.38;;;21.20
65600;BMP280;52272;-29.642;-50.764;2022-11-20T05:33:10;100438.13;;;21.14
65600;BMP280;52272;-29.642;-50.764;2022-11-20T05:35:40;100431.16;;;21.18
65600;BMP280;52272;-29.642;-50.764;2022-11-20T05:38:10;100438.59;;;20.46
65600;BMP280;52272;-29.642;-50.764;2022-11-20T05:40:40;100429.94;;;20.18
65600;BMP280;52272;-29.642;-50.764;2022-11-20T05:43:10;100426.28;;;20.15
65600;BMP280;52272;-29.642;-50.764;2022-11-20T05:45:40;100421.69;;;20.34
65600;BMP280;52272;-29.642;-50.764;2022-11-20T05:48:10;100427.41;;;20.55
65600;BMP280;52272;-29.642;-50.764;2022-11-20T05:50:41;100422.97;;;19.99
65600;BMP280;52272;-29.642;-50.764;2022-11-20T05:53:10;100431.16;;;20.46
65600;BMP280;52272;-29.642;-50.764;2022-11-20T05:55:41;100435.22;;;20.58
65600;BMP280;52272;-29.642;-50.764;2022-11-20T05:58:13;100438.38;;;20.38
65600;BMP280;52272;-29.642;-50.764;2022-11-20T06:00:43;100441.50;;;20.48
65600;BMP280;52272;-29.642;-50.764;2022-11-20T06:03:13;100425.56;;;20.44
65600;BMP280;52272;-29.642;-50.764;2022-11-20T06:05:46;100423.59;;;20.69
65600;BMP280;52272;-29.642;-50.764;2022-11-20T06:08:16;100433.78;;;20.57
65600;BMP280;52272;-29.642;-50.764;2022-11-20T06:10:46;100422.22;;;20.57
65600;BMP280;52272;-29.642;-50.764;2022-11-20T06:13:16;100433.16;;;20.16
65600;BMP280;52272;-29.642;-50.764;2022-11-20T06:15:52;100428.47;;;20.46
65600;BMP280;52272;-29.642;-50.764;2022-11-20T06:18:22;100425.69;;;20.28
65600;BMP280;52272;-29.642;-50.764;2022-11-20T06:21:00;100427.56;;;20.09
65600;BMP280;52272;-29.642;-50.764;2022-11-20T06:23:31;100430.78;;;20.37
65600;BMP280;52272;-29.642;-50.764;2022-11-20T06:26:19;100420.94;;;20.63
65600;BMP280;52272;-29.642;-50.764;2022-11-20T06:28:53;100422.84;;;20.68
65600;BMP280;52272;-29.642;-50.764;2022-11-20T06:31:25;100428.16;;;20.79
65600;BMP280;52272;-29.642;-50.764;2022-11-20T06:33:55;100429.75;;;20.10
65600;BMP280;52272;-29.642;-50.764;2022-11-20T06:36:26;100431.25;;;20.12
65600;BMP280;52272;-29.642;-50.764;2022-11-20T06:38:56;100436.78;;;20.24
65600;BMP280;52272;-29.642;-50.764;2022-11-20T06:41:26;100437.47;;;20.30
65600;BMP280;52272;-29.642;-50.764;2022-11-20T06:43:57;100430.69;;;19.84
65600;BMP280;52272;-29.642;-50.764;2022-11-20T06:46:27;100423.03;;;19.88
65600;BMP280;52272;-29.642;-50.764;2022-11-20T06:48:57;100429.09;;;19.59
65600;BMP280;52272;-29.642;-50.764;2022-11-20T06:51:28;100420.69;;;19.68
65600;BMP280;52272;-29.642;-50.764;2022-11-20T06:53:58;100424.31;;;19.41
65600;BMP280;52272;-29.642;-50.764;2022-11-20T06:56:30;100427.28;;;19.83
65600;BMP280;52272;-29.642;-50.764;2022-11-20T06:59:04;100422.16;;;19.69
65600;BMP280;52272;-29.642;-50.764;2022-11-20T07:01:35;100424.59;;;19.78
65600;BMP280;52272;-29.642;-50.764;2022-11-20T07:04:05;100428.28;;;20.09
65600;BMP280;52272;-29.642;-50.764;2022-11-20T07:06:38;100429.28;;;20.07
65600;BMP280;52272;-29.642;-50.764;2022-11-20T07:09:08;100427.16;;;19.94
65600;BMP280;52272;-29.642;-50.764;2022-11-20T07:11:40;100436.09;;;20.18
65600;BMP280;52272;-29.642;-50.764;2022-11-20T07:14:13;100436.66;;;20.41
65600;BMP280;52272;-29.642;-50.764;2022-11-20T07:16:44;100439.22;;;20.57
65600;BMP280;52272;-29.642;-50.764;2022-11-20T07:19:13;100447.66;;;20.48
65600;BMP280;52272;-29.642;-50.764;2022-11-20T07:21:44;100444.06;;;20.64
65600;BMP280;52272;-29.642;-50.764;2022-11-20T07:24:14;100453.72;;;20.54
65600;BMP280;52272;-29.642;-50.764;2022-11-20T07:26:48;100448.91;;;20.71
65600;BMP280;52272;-29.642;-50.764;2022-11-20T07:29:20;100452.66;;;20.63
65600;BMP280;52272;-29.642;-50.764;2022-11-20T07:31:51;100462.03;;;20.32
65600;BMP280;52272;-29.642;-50.764;2022-11-20T07:34:22;100453.03;;;20.19
65600;BMP280;52272;-29.642;-50.764;2022-11-20T07:36:53;100462.00;;;20.09
65600;BMP280;52272;-29.642;-50.764;2022-11-20T07:39:23;100456.19;;;19.94
65600;BMP280;52272;-29.642;-50.764;2022-11-20T07:41:53;100457.94;;;19.91
65600;BMP280;52272;-29.642;-50.764;2022-11-20T07:44:25;100466.50;;;19.95
65600;BMP280;52272;-29.642;-50.764;2022-11-20T07:46:56;100473.69;;;20.22
65600;BMP280;52272;-29.642;-50.764;2022-11-20T07:49:26;100477.47;;;20.43
65600;BMP280;52272;-29.642;-50.764;2022-11-20T07:51:57;100482.75;;;20.83
65600;BMP280;52272;-29.642;-50.764;2022-11-20T07:54:32;100487.94;;;21.05
65600;BMP280;52272;-29.642;-50.764;2022-11-20T07:57:03;100485.88;;;21.35
65600;BMP280;52272;-29.642;-50.764;2022-11-20T07:59:32;100494.81;;;21.06
65600;BMP280;52272;-29.642;-50.764;2022-11-20T08:02:03;100509.41;;;21.46
65600;BMP280;52272;-29.642;-50.764;2022-11-20T08:04:33;100515.78;;;21.48
65600;BMP280;52272;-29.642;-50.764;2022-11-20T08:07:03;100515.66;;;21.35
65600;BMP280;52272;-29.642;-50.764;2022-11-20T08:09:34;100523.31;;;21.37
65600;BMP280;52272;-29.642;-50.764;2022-11-20T08:12:04;100515.59;;;21.22
65600;BMP280;52272;-29.642;-50.764;2022-11-20T08:14:53;100526.81;;;21.50
65600;BMP280;52272;-29.642;-50.764;2022-11-20T08:17:26;100521.53;;;21.39
65600;BMP280;52272;-29.642;-50.764;2022-11-20T08:19:56;100534.44;;;21.33
65600;BMP280;52272;-29.642;-50.764;2022-11-20T08:22:28;100528.44;;;21.16
65600;BMP280;52272;-29.642;-50.764;2022-11-20T08:24:58;100543.00;;;21.13
65600;BMP280;52272;-29.642;-50.764;2022-11-20T08:27:29;100539.25;;;21.22
65600;BMP280;52272;-29.642;-50.764;2022-11-20T08:29:59;100537.81;;;21.57
65600;BMP280;52272;-29.642;-50.764;2022-11-20T08:32:29;100532.56;;;21.65
65600;BMP280;52272;-29.642;-50.764;2022-11-20T08:34:59;100520.38;;;21.71
65600;BMP280;52272;-29.642;-50.764;2022-11-20T08:37:29;100538.94;;;22.36
65600;BMP280;52272;-29.642;-50.764;2022-11-20T08:40:00;100540.81;;;22.72
65600;BMP280;52272;-29.642;-50.764;2022-11-20T08:42:30;100554.06;;;22.76
65600;BMP280;52272;-29.642;-50.764;2022-11-20T08:45:01;100545.84;;;22.81
65600;BMP280;52272;-29.642;-50.764;2022-11-20T08:47:31;100551.09;;;23.05
65600;BMP280;52272;-29.642;-50.764;2022-11-20T08:50:02;100552.22;;;23.09
65600;BMP280;52272;-29.642;-50.764;2022-11-20T08:52:32;100552.44;;;23.11
65600;BMP280;52272;-29.642;-50.764;2022-11-20T08:55:08;100559.53;;;23.14
65600;BMP280;52272;-29.642;-50.764;2022-11-20T08:57:38;100552.16;;;23.61
65600;BMP280;52272;-29.642;-50.764;2022-11-20T09:00:13;100560.06;;;23.72
65600;BMP280;52272;-29.642;-50.764;2022-11-20T09:02:44;100540.09;;;24.03
65600;BMP280;52272;-29.642;-50.764;2022-11-20T09:05:14;100566.94;;;24.40
65600;BMP280;52272;-29.642;-50.764;2022-11-20T09:07:44;100567.72;;;24.48
65600;BMP280;52272;-29.642;-50.764;2022-11-20T09:10:14;100577.75;;;25.01
65600;BMP280;52272;-29.642;-50.764;2022-11-20T09:12:53;100591.75;;;25.13
65600;BMP280;52272;-29.642;-50.764;2022-11-20T09:15:25;100585.22;;;25.16
65600;BMP280;52272;-29.642;-50.764;2022-11-20T09:18:00;100591.31;;;25.79
65600;BMP280;52272;-29.642;-50.764;2022-11-20T09:20:31;100594.63;;;26.00
65600;BMP280;52272;-29.642;-50.764;2022-11-20T09:23:02;100596.31;;;26.18
65600;BMP280;52272;-29.642;-50.764;2022-11-20T09:25:32;100613.06;;;26.52
65600;BMP280;52272;-29.642;-50.764;2022-11-20T09:28:03;100621.44;;;26.46
65600;BMP280;52272;-29.642;-50.764;2022-11-20T09:30:33;100619.06;;;26.21
65600;BMP280;52272;-29.642;-50.764;2022-11-20T09:33:05;100637.06;;;26.16
65600;BMP280;52272;-29.642;-50.764;2022-11-20T09:35:35;100640.09;;;25.90
65600;BMP280;52272;-29.642;-50.764;2022-11-20T09:38:08;100643.00;;;25.85
65600;BMP280;52272;-29.642;-50.764;2022-11-20T09:40:45;100644.13;;;26.04
65600;BMP280;52272;-29.642;-50.764;2022-11-20T09:46:26;100638.72;;;26.34
65600;BMP280;52272;-29.642;-50.764;2022-11-20T09:49:20;100655.44;;;26.98
65600;BMP280;52272;-29.642;-50.764;2022-11-20T09:54:47;100675.34;;;27.60
65600;BMP280;52272;-29.642;-50.764;2022-11-20T09:57:34;100681.84;;;27.64
65600;BMP280;52272;-29.642;-50.764;2022-11-20T10:00:14;100672.97;;;27.64
65600;BMP280;52272;-29.642;-50.764;2022-11-20T10:02:52;100677.59;;;28.10
65600;BMP280;52272;-29.642;-50.764;2022-11-20T10:05:44;100677.84;;;28.29
65600;BMP280;52272;-29.642;-50.764;2022-11-20T10:11:43;100696.03;;;28.17
65600;BMP280;52272;-29.642;-50.764;2022-11-20T10:17:33;100702.41;;;28.12
65600;BMP280;52272;-29.642;-50.764;2022-11-20T10:20:35;100695.91;;;28.32
65600;BMP280;52272;-29.642;-50.764;2022-11-20T10:31:33;100714.50;;;28.99
65600;BMP280;52272;-29.642;-50.764;2022-11-20T10:37:05;100712.34;;;28.56
65600;BMP280;52272;-29.642;-50.764;2022-11-20T10:39:48;100718.16;;;29.35
65600;BMP280;52272;-29.642;-50.764;2022-11-20T10:42:31;100721.25;;;29.92
65600;BMP280;52272;-29.642;-50.764;2022-11-20T10:47:44;100729.91;;;29.89
65600;BMP280;52272;-29.642;-50.764;2022-11-20T10:50:19;100735.88;;;30.94
65600;BMP280;52272;-29.642;-50.764;2022-11-20T10:53:33;100748.16;;;31.50
65600;BMP280;52272;-29.642;-50.764;2022-11-20T10:56:14;100744.25;;;32.12
65600;BMP280;52272;-29.642;-50.764;2022-11-20T11:01:50;100741.91;;;33.01
65600;BMP280;52272;-29.642;-50.764;2022-11-20T11:04:50;100745.81;;;32.66
65600;BMP280;52272;-29.642;-50.764;2022-11-20T11:07:41;100748.09;;;32.49
65600;BMP280;52272;-29.642;-50.764;2022-11-20T11:10:18;100758.69;;;32.73
65600;BMP280;52272;-29.642;-50.764;2022-11-20T11:12:50;100759.88;;;33.02
65600;BMP280;52272;-29.642;-50.764;2022-11-20T11:15:27;100755.19;;;33.14
65600;BMP280;52272;-29.642;-50.764;2022-11-20T11:17:58;100751.91;;;32.64
65600;BMP280;52272;-29.642;-50.764;2022-11-20T11:20:28;100746.16;;;33.25
65600;BMP280;52272;-29.642;-50.764;2022-11-20T11:22:59;100750.47;;;32.63
65600;BMP280;52272;-29.642;-50.764;2022-11-20T11:25:31;100750.78;;;32.37
65600;BMP280;52272;-29.642;-50.764;2022-11-20T11:30:49;100750.59;;;32.65
65600;BMP280;52272;-29.642;-50.764;2022-11-20T11:33:30;100751.34;;;33.19
65600;BMP280;52272;-29.642;-50.764;2022-11-20T11:36:14;100739.47;;;33.28
65600;BMP280;52272;-29.642;-50.764;2022-11-20T11:38:51;100717.16;;;33.47
65600;BMP280;52272;-29.642;-50.764;2022-11-20T11:41:30;100734.50;;;33.93
65600;BMP280;52272;-29.642;-50.764;2022-11-20T11:44:30;100753.78;;;34.50
65600;BMP280;52272;-29.642;-50.764;2022-11-20T11:47:31;100742.88;;;34.18
65600;BMP280;52272;-29.642;-50.764;2022-11-20T11:58:17;100724.97;;;35.81
65600;BMP280;52272;-29.642;-50.764;2022-11-20T12:00:54;100732.34;;;35.63
65600;BMP280;52272;-29.642;-50.764;2022-11-20T12:03:36;100747.31;;;36.39
65600;BMP280;52272;-29.642;-50.764;2022-11-20T12:06:13;100735.13;;;36.59
65600;BMP280;52272;-29.642;-50.764;2022-11-20T12:08:57;100734.75;;;36.38
65600;BMP280;52272;-29.642;-50.764;2022-11-20T12:14:43;100707.09;;;34.56
65600;BMP280;52272;-29.642;-50.764;2022-11-20T12:17:15;100727.41;;;35.10
65600;BMP280;52272;-29.642;-50.764;2022-11-20T12:19:45;100727.03;;;34.18
65600;BMP280;52272;-29.642;-50.764;2022-11-20T12:22:34;100728.53;;;34.81
65600;BMP280;52272;-29.642;-50.764;2022-11-20T12:30:53;100704.22;;;33.95
65600;BMP280;52272;-29.642;-50.764;2022-11-20T12:39:35;100681.38;;;34.17
65600;BMP280;52272;-29.642;-50.764;2022-11-20T12:45:24;100661.13;;;34.26
65600;BMP280;52272;-29.642;-50.764;2022-11-20T12:54:11;100686.28;;;34.55
65600;BMP280;52272;-29.642;-50.764;2022-11-20T12:57:06;100680.97;;;34.59
65600;BMP280;52272;-29.642;-50.764;2022-11-20T13:05:59;100696.66;;;35.69
65600;BMP280;52272;-29.642;-50.764;2022-11-20T13:08:36;100684.78;;;35.15
65600;BMP280;52272;-29.642;-50.764;2022-11-20T13:14:13;100670.75;;;35.25
65600;BMP280;52272;-29.642;-50.764;2022-11-20T13:17:10;100663.47;;;35.71
65600;BMP280;52272;-29.642;-50.764;2022-11-20T13:19:54;100650.97;;;35.30
65600;BMP280;52272;-29.642;-50.764;2022-11-20T13:22:41;100647.25;;;35.79
65600;BMP280;52272;-29.642;-50.764;2022-11-20T13:25:26;100636.97;;;36.53
65600;BMP280;52272;-29.642;-50.764;2022-11-20T13:28:00;100625.16;;;35.81
65600;BMP280;52272;-29.642;-50.764;2022-11-20T13:34:32;100614.59;;;35.11
65600;BMP280;52272;-29.642;-50.764;2022-11-20T13:37:03;100617.28;;;35.36
65600;BMP280;52272;-29.642;-50.764;2022-11-20T13:39:35;100611.63;;;35.20
65600;BMP280;52272;-29.642;-50.764;2022-11-20T13:44:46;100596.59;;;34.85
65600;BMP280;52272;-29.642;-50.764;2022-11-20T13:47:28;100589.97;;;34.65
65600;BMP280;52272;-29.642;-50.764;2022-11-20T13:49:59;100591.63;;;34.70
65600;BMP280;52272;-29.642;-50.764;2022-11-20T13:55:40;100579.88;;;34.83
65600;BMP280;52272;-29.642;-50.764;2022-11-20T14:00:55;100580.72;;;36.37
65600;BMP280;52272;-29.642;-50.764;2022-11-20T14:03:30;100577.34;;;37.00
65600;BMP280;52272;-29.642;-50.764;2022-11-20T14:06:27;100575.28;;;37.33
65600;BMP280;52272;-29.642;-50.764;2022-11-20T14:08:59;100579.47;;;36.55
65600;BMP280;52272;-29.642;-50.764;2022-11-20T14:11:31;100583.19;;;35.73
65600;BMP280;52272;-29.642;-50.764;2022-11-20T14:14:16;100581.69;;;36.90
65600;BMP280;52272;-29.642;-50.764;2022-11-20T14:16:48;100600.50;;;37.22
65600;BMP280;52272;-29.642;-50.764;2022-11-20T14:24:41;100611.66;;;37.06
65600;BMP280;52272;-29.642;-50.764;2022-11-20T14:27:18;100588.63;;;36.73
65600;BMP280;52272;-29.642;-50.764;2022-11-20T14:29:50;100608.56;;;37.00
65600;BMP280;52272;-29.642;-50.764;2022-11-20T14:32:23;100598.13;;;37.47
65600;BMP280;52272;-29.642;-50.764;2022-11-20T14:34:59;100590.53;;;37.32
65600;BMP280;52272;-29.642;-50.764;2022-11-20T14:37:33;100583.41;;;36.97
65600;BMP280;52272;-29.642;-50.764;2022-11-20T14:40:28;100575.16;;;37.47
65600;BMP280;52272;-29.642;-50.764;2022-11-20T14:42:59;100571.53;;;38.48
65600;BMP280;52272;-29.642;-50.764;2022-11-20T14:45:29;100577.59;;;39.42
65600;BMP280;52272;-29.642;-50.764;2022-11-20T14:48:00;100576.03;;;40.03
65600;BMP280;52272;-29.642;-50.764;2022-11-20T14:50:30;100572.88;;;40.37
65600;BMP280;52272;-29.642;-50.764;2022-11-20T14:53:01;100564.25;;;38.59
65600;BMP280;52272;-29.642;-50.764;2022-11-20T14:55:37;100565.69;;;38.79
65600;BMP280;52272;-29.642;-50.764;2022-11-20T14:58:25;100565.22;;;38.29
65600;BMP280;52272;-29.642;-50.764;2022-11-20T15:01:11;100559.84;;;38.52
65600;BMP280;52272;-29.642;-50.764;2022-11-20T15:03:43;100566.34;;;38.58
65600;BMP280;52272;-29.642;-50.764;2022-11-20T15:06:13;100553.84;;;37.36
65600;BMP280;52272;-29.642;-50.764;2022-11-20T15:08:53;100547.59;;;38.41
65600;BMP280;52272;-29.642;-50.764;2022-11-20T15:11:31;100544.53;;;37.97
65600;BMP280;52272;-29.642;-50.764;2022-11-20T15:14:04;100548.41;;;38.44
65600;BMP280;52272;-29.642;-50.764;2022-11-20T15:16:35;100563.22;;;39.70
65600;BMP280;52272;-29.642;-50.764;2022-11-20T15:19:16;100546.91;;;38.41
65600;BMP280;52272;-29.642;-50.764;2022-11-20T15:21:46;100548.59;;;37.26
65600;BMP280;52272;-29.642;-50.764;2022-11-20T15:24:16;100539.88;;;37.34
65600;BMP280;52272;-29.642;-50.764;2022-11-20T15:26:47;100524.25;;;37.09
65600;BMP280;52272;-29.642;-50.764;2022-11-20T15:29:17;100538.13;;;38.68
65600;BMP280;52272;-29.642;-50.764;2022-11-20T15:31:48;100538.88;;;39.73
65600;BMP280;52272;-29.642;-50.764;2022-11-20T15:34:20;100542.56;;;40.26